Home > Products > Valid Products > TAF

000
FTUS44 KCRP 261506 AAC
TAFLRD
TAF AMD
KLRD 261506Z 2615/2712 15015KT P6SM SCT015 BKN150
      TEMPO 2615/2617 BKN015
     FM261700 16013KT P6SM BKN035 OVC150
     FM262300 13013KT P6SM VCTS SCT045CB OVC150
     FM270900 16008KT P6SM BKN015=



000
FTUS44 KCRP 261407 AAC
TAFCRP
TAF AMD
KCRP 261407Z 2614/2712 16010KT P6SM VCSH SCT015 BKN035 OVC150
      TEMPO 2614/2616 4SM -SHRA BKN015
     FM261600 16013KT P6SM VCSH BKN035 OVC150
     FM262000 14016G24KT P6SM VCTS BKN040CB OVC150
     FM270200 14015KT P6SM BKN015 BKN025
     FM270900 15008KT P6SM VCSH BKN015=



000
FTUS44 KCRP 261405 AAB
TAFALI
TAF AMD
KALI 261405Z 2614/2712 16007KT P6SM BKN015 OVC150
     FM261600 16011KT P6SM VCSH BKN025 BKN035 OVC150
     FM261800 14014G20KT P6SM VCTS BKN040CB OVC150
     FM270300 14012KT P6SM BKN020 BKN030
     FM270900 14012KT P6SM VCSH BKN015=



000
FTUS44 KCRP 261402 AAB
TAFLRD
TAF AMD
KLRD 261402Z 2614/2712 15012KT P6SM BKN009 OVC150
     FM261530 14007KT P6SM BKN012 OVC150
     FM261800 16013KT P6SM BKN035 OVC150
     FM262300 13013KT P6SM VCTS SCT045CB OVC150
     FM270900 16008KT P6SM BKN015=



000
FTUS44 KCRP 261300 AAA
TAFLRD
TAF AMD
KLRD 261300Z 2613/2712 15011KT P6SM SCT015 OVC150
     FM261500 14007KT P6SM BKN025 OVC150
     FM261800 16013KT P6SM BKN035 OVC150
     FM262300 13013KT P6SM VCTS SCT045CB OVC150
     FM270900 16008KT P6SM BKN015=



000
FTUS44 KCRP 260859 AAB
TAFCRP
TAF AMD
KCRP 260859Z 2609/2706 15008KT P6SM VCSH BKN015 OVC020
     FM261600 16013KT P6SM BKN035 OVC150
     FM262000 14016G24KT P6SM VCTS BKN040CB OVC150
     FM270200 14015KT P6SM SCT015 BKN025=



000
FTUS44 KCRP 260717 AAA
TAFLRD
TAF AMD
KLRD 260717Z 2607/2706 15007KT P6SM VCSH BKN015 OVC100
      TEMPO 2607/2610 -RA BKN015 OVC080
     FM261400 14007KT P6SM BKN025 OVC150
     FM261800 16013KT P6SM BKN035 OVC150
     FM262300 13013KT P6SM VCTS SCT045CB OVC150=



000
FTUS44 KCRP 260529
TAFLRD
TAF
KLRD 260529Z 2606/2706 15009KT P6SM SCT040 OVC150
      TEMPO 2606/2608 -RA OVC080
     FM260800 15007KT P6SM VCSH BKN015 OVC100
     FM261400 14007KT P6SM BKN025 OVC150
     FM261800 16013KT P6SM BKN035 OVC150
     FM262300 13013KT P6SM VCTS SCT045CB OVC150=



000
FTUS44 KCRP 260529
TAFCRP
TAF
KCRP 260529Z 2606/2706 15011KT P6SM SCT015 OVC100
      TEMPO 2606/2609 -RA BKN015 OVC100
     FM261000 15008KT P6SM VCSH OVC015
     FM261600 16013KT P6SM BKN035 OVC150
     FM262000 14016G24KT P6SM VCTS BKN040CB OVC150
     FM270200 14015KT P6SM SCT015 BKN025=



000
FTUS44 KCRP 260529
TAFVCT
TAF
KVCT 260529Z 2606/2706 15008KT 6SM BR OVC015
      TEMPO 2606/2610 4SM -RA BR OVC015
     FM261000 14004KT 3SM BR VCSH BKN015 OVC025
     FM261530 16013KT P6SM BKN035 OVC150
     FM262000 15015G23KT P6SM VCTS BKN040CB OVC150
     FM270200 14011KT P6SM BKN015 OVC025=



000
FTUS44 KCRP 260529
TAFALI
TAF
KALI 260529Z 2606/2706 15011KT P6SM VCSH SCT025 BKN150
      TEMPO 2606/2609 6SM -RA BR BKN025 OVC100
     FM260900 14005KT P6SM VCSH BKN015
     FM261600 14010KT P6SM SCT025 BKN035 OVC150
     FM262000 14014G20KT P6SM VCTS BKN040CB OVC150
     FM270300 14012KT P6SM SCT025 BKN030=



000
FTUS44 KCRP 260330 AAC
TAFCRP
TAF AMD
KCRP 260330Z 2604/2624 14012KT P6SM VCSH SCT018 BKN150
     FM260600 15010KT P6SM BKN019 OVC100
      TEMPO 2606/2610 -SHRA SCT015 OVC100
     FM261000 15008KT P6SM OVC015
     FM261600 16013KT P6SM BKN035 OVC150
     FM262000 14016G24KT P6SM VCTS BKN040CB OVC150=



000
FTUS44 KCRP 260219 AAB
TAFCRP
TAF AMD
KCRP 260219Z 2602/2624 14012KT P6SM SCT018 BKN150
     FM260400 15010KT P6SM BKN019 OVC100
      TEMPO 2606/2610 5SM SHRA BR SCT015 OVC100
     FM261000 15008KT P6SM OVC015
     FM261600 16013KT P6SM BKN035 OVC150
     FM262000 14016G24KT P6SM VCTS BKN040CB OVC150=



000
FTUS44 KCRP 252337
TAFVCT
TAF
KVCT 252337Z 2600/2624 14013KT P6SM SCT035 OVC150
     FM260200 14009KT P6SM BKN025
     FM260500 15008KT 4SM -SHRA BR OVC015
      TEMPO 2606/2610 5SM TSRA BR BKN020CB OVC090
     FM261530 16013KT P6SM BKN035 OVC150
     FM262000 15015G23KT P6SM VCTS BKN040CB OVC150=



000
FTUS44 KCRP 252337
TAFLRD
TAF
KLRD 252337Z 2600/2624 12011KT P6SM VCTS BKN040CB OVC150
      TEMPO 2601/2605 VRB15G30KT 2SM +TSRA BR OVC015CB
     FM260500 15011KT 6SM -TSRA SCT025CB OVC080
     FM260800 16007KT P6SM BKN015 OVC100
     FM261600 16013KT P6SM BKN035 OVC150
     FM262200 13013KT P6SM VCTS SCT045CB OVC150=



000
FTUS44 KCRP 252337
TAFCRP
TAF
KCRP 252337Z 2600/2624 14015G22KT P6SM SCT025 BKN150
     FM260200 14014KT P6SM BKN019
     FM260300 15009KT P6SM VCTS BKN009CB OVC100
      TEMPO 2605/2609 5SM TSRA BR FEW009 BKN015CB OVC100
     FM261000 15008KT P6SM OVC015
     FM261600 16013KT P6SM BKN035 OVC150
     FM262000 14016G24KT P6SM VCTS BKN040CB OVC150=



000
FTUS44 KCRP 252337
TAFALI
TAF
KALI 252337Z 2600/2624 12015G21KT P6SM BKN025 OVC040
     FM260200 13010KT P6SM VCTS BKN025CB
      TEMPO 2603/2607 5SM TSRA BR BKN009CB OVC100
     FM260800 12007KT 6SM -TSRA BR BKN015CB OVC150
     FM261100 13007KT P6SM OVC011
     FM261600 14010KT P6SM BKN025 OVC150
     FM262000 14014G20KT P6SM VCTS BKN040CB OVC150=



000
FTUS44 KCRP 251011 AAB
TAFCRP
TAF AMD
KCRP 251011Z 2510/2606 16006KT P6SM FEW009 SCT015 BKN025
     FM251500 15014G18KT P6SM BKN025
     FM251900 12020G28KT P6SM SCT030 BKN040
     FM260200 14014KT P6SM BKN015=



000
FTUS44 KCRP 250534
TAFVCT
TAF
KVCT 250534Z 2506/2606 13010KT 6SM BR BKN018
     FM250900 16004KT 5SM BR BKN007 OVC015
     FM251500 15010G16KT P6SM SCT020 BKN025
     FM252000 14015G22KT P6SM BKN035 OVC040
     FM260100 13009KT P6SM BKN015=



000
FTUS44 KCRP 250534
TAFLRD
TAF
KLRD 250534Z 2506/2606 13015KT P6SM SCT040 BKN200
     FM251000 12009KT P6SM BKN020
     FM251800 15014KT P6SM BKN035 OVC150
     FM252200 13014G18KT P6SM VCTS BKN040CB OVC200=



000
FTUS44 KCRP 250534
TAFALI
TAF
KALI 250534Z 2506/2606 14008KT P6SM SCT015
     FM250700 15004KT 6SM BR SCT007 OVC015
      TEMPO 2509/2512 5SM BR BKN007 OVC015
     FM251500 15012G18KT P6SM BKN025
     FM252000 12018G25KT P6SM BKN035 OVC040
     FM260300 14011KT P6SM BKN015=



000
FTUS44 KCRP 250534
TAFCRP
TAF
KCRP 250534Z 2506/2606 14010KT P6SM FEW009 SCT015
     FM250700 15006KT P6SM SCT009 BKN015
     FM251500 15014G18KT P6SM BKN025
     FM251900 12020G28KT P6SM SCT030 BKN040
     FM260200 14014KT P6SM BKN015=



000
FTUS44 KCRP 241630 CCA
TAFCRP
TAF COR
KCRP 241630Z 2417/2512 14014G24KT P6SM SCT015 SCT025 BKN050
      TEMPO 2417/2421 BKN025
     FM250100 12014KT P6SM SCT020 BKN200
     FM250600 13010KT P6SM BKN015
     FM251000 13008KT P6SM BKN009 OVC020=



000
FTUS44 KCRP 241630 AAA
TAFCRP
TAF AMD
KCRP 241630Z 2417/2512 14014G24KT P6SM SCT015 SCT025 BKN050
      TEMPO 2418/2421 BKN025
     FM250100 12014KT P6SM SCT020 BKN200
     FM250600 13010KT P6SM BKN015
     FM251000 13008KT P6SM BKN009 OVC020=



000
FTUS44 KCRP 241107 AAB
TAFLRD
TAF AMD
KLRD 241107Z 2411/2506 10006KT P6SM OVC015
     FM241600 12012KT P6SM BKN025 OVC050
     FM242100 13014G21KT P6SM BKN050
     FM250200 12014KT P6SM SCT040 BKN200=



000
FTUS44 KCRP 241106 AAB
TAFCRP
TAF AMD
KCRP 241106Z 2411/2506 12010KT P6SM SCT011 OVC020
      TEMPO 2411/2413 BKN011 OVC020
     FM241400 13012KT P6SM SCT015 BKN025
     FM242000 13018G25KT P6SM SCT025 BKN050
     FM250100 12014KT P6SM SCT020 BKN200
     FM250400 13010KT P6SM BKN015=



000
FTUS44 KCRP 241105 AAA
TAFALI
TAF AMD
KALI 241105Z 2411/2506 13007KT 6SM BR BKN011 OVC020
      TEMPO 2411/2414 4SM BR BKN007 OVC014
     FM241400 14012KT P6SM SCT015 BKN025
     FM242100 13015G20KT P6SM SCT030 BKN060
     FM250100 13012KT P6SM SCT020 BKN200
     FM250300 13010KT P6SM BKN015=



000
FTUS44 KCRP 241104 AAB
TAFVCT
TAF AMD
KVCT 241104Z 2411/2506 14008KT 6SM BR SCT014 OVC024
      TEMPO 2411/2414 4SM BR BKN014 OVC024
     FM241400 15010KT P6SM BKN015 OVC030
     FM241800 14012KT P6SM BKN025 OVC050
     FM242100 12014G20KT P6SM SCT025 BKN050
     FM250100 13010KT P6SM SCT020 BKN250
     FM250400 13007KT P6SM BKN015=



000
FTUS44 KCRP 240411 AAA
TAFLRD
TAF AMD
KLRD 240411Z 2404/2424 11014KT P6SM BKN025 OVC250
     FM240900 13014KT P6SM BKN015
     FM241600 14012G20KT P6SM BKN025
     FM242100 13015G25KT P6SM BKN040=



000
FTUS44 KCRP 232336
TAFVCT
TAF
KVCT 232336Z 2400/2424 14012G16KT P6SM VCSH BKN015 OVC025
     FM240300 14010KT P6SM SCT015
     FM240900 15002KT 5SM BR BKN007 OVC012
     FM241400 15007KT P6SM SCT007 BKN012
     FM241800 15014KT P6SM BKN025
     FM242100 12015G20KT P6SM SCT025 BKN040=



000
FTUS44 KCRP 232336
TAFCRP
TAF
KCRP 232336Z 2400/2424 13018G25KT P6SM SCT030
     FM240300 14015KT P6SM SCT015
     FM240800 15006KT P6SM SCT009 BKN015
      TEMPO 2410/2412 BKN009 OVC015
     FM241400 15010KT P6SM SCT009 BKN015
     FM242000 12018G25KT P6SM SCT025 BKN040=



000
FTUS44 KCRP 232336
TAFALI
TAF
KALI 232336Z 2400/2424 12015G20KT P6SM SCT040
     FM240300 14010KT P6SM SCT015
     FM240800 15006KT 5SM BR SCT007 BKN015
      TEMPO 2410/2412 BKN007 OVC015
     FM241400 15012KT P6SM SCT009 BKN015
     FM242100 12015G20KT P6SM SCT025 BKN040=



000
FTUS44 KCRP 232336
TAFLRD
TAF
KLRD 232336Z 2400/2424 13015G25KT P6SM BKN050
     FM240400 13015KT P6SM SCT025 BKN250
     FM240900 15014KT P6SM BKN015
     FM241600 14012G20KT P6SM BKN025
     FM242100 13015G25KT P6SM BKN040=



000
FTUS44 KCRP 232050 AAA
TAFVCT
TAF AMD
KVCT 232050Z 2321/2418 13012KT P6SM VCSH BKN025 OVC050
     FM232300 14014KT P6SM SCT030 BKN060
     FM240300 13010KT P6SM BKN015
     FM240800 13007KT 5SM BR BKN008 OVC015
     FM241600 14012G20KT P6SM BKN015=



000
FTUS44 KCRP 232044 AAA
TAFLRD
TAF AMD
KLRD 232044Z 2321/2418 13016KT P6SM BKN050
     FM240300 13018KT P6SM SCT030 BKN250
     FM240900 14014KT P6SM BKN015
     FM241500 14012G20KT P6SM BKN025=



    US Dept of Commerce
    National Oceanic and Atmospheric Administration
    National Weather Service
    1325 East West Highway
    Silver Spring, MD 20910
    Page Author: NWS Internet Services Team
Disclaimer
Information Quality
Credits
Glossary
Privacy Policy
Freedom of Information Act (FOIA)
About Us
Career Opportunities